La Grande, OR

3:54 AM PDT on September 20, 2014 (GMT -0700)
Eastern Oreg Regional At Pendleton | Change Station
CLOSE
Current Station
Airport
Location: Pendleton,
Elevation: 1496 ft
Nearby Weather Stations

Elev 1496 ft 45.70 °N, 118.84 °W | Updated 1 hour ago

Clear
Clear
57 °F
Feels Like 57 °F
N
9
Wind Variable Wind from ESE

Today
High -- | Low -- °F
--% Chance of Precip.
Yesterday
High -- | Low -- °F
Precip. -- in
6:37 AM 6:53 PM
Waning Crescent, 13% visible
Pressure 30.03 in
Visibility 10.0 miles
Clouds Clear
Dew Point 44 °F
Humidity 62%
Rainfall 0.00 in
Snow Depth 0 in , 0 in , 1 in
UV 0 out of 12
Pollen 5.40 out of 12
Air Quality Not available.
Flu Activity Not available.
METAR KPDT 200953Z AUTO 11008KT 10SM CLR 14/07 A3007 RMK AO2 SLP167 T01390067

More Conditions Fewer Conditions

Pressure 30.03 in
Visibility 10.0 miles
Clouds Clear
Dew Point 44 °F
Humidity 62%
Rainfall 0.00 in
Snow Depth 0 in , 0 in , 1 in
UV 0 out of 12
Pollen 5.40 out of 12
Air Quality Not available.
Flu Activity Not available.
METAR KPDT 200953Z AUTO 11008KT 10SM CLR 14/07 A3007 RMK AO2 SLP167 T01390067

More Conditions Fewer Conditions

10-Day Weather Forecast

Almanac

Astronomy

Sep. 20, 2014 Rise Set
Actual Time 6:37 AM PDT 6:53 PM PDT
Civil Twilight 6:07 AM PDT 7:23 PM PDT
Nautical Twilight 5:33 AM PDT 7:58 PM PDT
Astronomical Twilight 4:57 AM PDT 8:33 PM PDT
Moon 3:13 AM PDT 5:06 PM PDT
Length of Visible Light 13h 15m
Length of Day
12h 16m
Tomorrow will be 3m 9s shorter.
Waning Crescent, 13% of the Moon is Illuminated
Today
Waning Crescent
Sep 24
New
Oct 1
First Quarter
Oct 8
Full
Oct 15
Last Quarter

Today's Extremes

State Highs State Lows

Community

WunderPhotos

Upload Photos

1,754,827 photos uploaded!

Nearby

Snow Depth

Station Depth Elevation
Clackamas Lake 0 in 3400 ft
Annie Springs 0 in 6020 ft
Greenpoint 1 in 3200 ft
Arbuckle Mountain 0 in 5400 ft
Sevenmile Marsh 0 in 6200 ft

Earthquake Activity

City Distance Mag. Time & Date
No recent earthquake activity has been reported nearby.
Minimum magnitude displayed is 2.5.

Coastal Water Temperatures

Place Temperature
No Stations Reporting

Nearby Weather Stations